sensor_id;sensor_type;location;lat;lon;timestamp;pressure;altitude;pressure_sealevel;temperature;humidity
7407;BME280;3745;56.964;24.128;2023-07-24T00:01:13;100561.28;;;14.85;100.00
7407;BME280;3745;56.964;24.128;2023-07-24T00:03:38;100566.34;;;14.91;100.00
7407;BME280;3745;56.964;24.128;2023-07-24T00:06:04;100573.19;;;14.86;100.00
7407;BME280;3745;56.964;24.128;2023-07-24T00:08:30;100575.75;;;14.81;100.00
7407;BME280;3745;56.964;24.128;2023-07-24T00:10:55;100470.03;;;14.18;100.00
7407;BME280;3745;56.964;24.128;2023-07-24T00:13:21;100525.88;;;14.51;100.00
7407;BME280;3745;56.964;24.128;2023-07-24T00:15:46;100569.81;;;14.81;100.00
7407;BME280;3745;56.964;24.128;2023-07-24T00:18:12;100542.75;;;14.66;100.00
7407;BME280;3745;56.964;24.128;2023-07-24T00:20:37;100574.84;;;14.87;100.00
7407;BME280;3745;56.964;24.128;2023-07-24T00:23:03;100574.75;;;14.99;100.00
7407;BME280;3745;56.964;24.128;2023-07-24T00:25:29;100499.53;;;14.55;100.00
7407;BME280;3745;56.964;24.128;2023-07-24T00:27:54;100380.44;;;13.80;100.00
7407;BME280;3745;56.964;24.128;2023-07-24T00:30:20;100510.50;;;14.67;100.00
7407;BME280;3745;56.964;24.128;2023-07-24T00:32:46;100493.56;;;14.56;100.00
7407;BME280;3745;56.964;24.128;2023-07-24T00:35:11;100567.03;;;15.08;100.00
7407;BME280;3745;56.964;24.128;2023-07-24T00:37:37;100553.59;;;14.91;100.00
7407;BME280;3745;56.964;24.128;2023-07-24T00:40:03;100564.59;;;14.93;100.00
7407;BME280;3745;56.964;24.128;2023-07-24T00:42:29;100468.28;;;14.32;100.00
7407;BME280;3745;56.964;24.128;2023-07-24T00:44:55;100530.75;;;14.79;100.00
7407;BME280;3745;56.964;24.128;2023-07-24T00:47:21;100553.56;;;14.94;100.00
7407;BME280;3745;56.964;24.128;2023-07-24T00:49:48;100444.53;;;14.30;100.00
7407;BME280;3745;56.964;24.128;2023-07-24T00:52:15;100512.09;;;14.74;100.00
7407;BME280;3745;56.964;24.128;2023-07-24T00:54:41;100508.72;;;14.72;100.00
7407;BME280;3745;56.964;24.128;2023-07-24T00:57:07;100410.69;;;14.16;100.00
7407;BME280;3745;56.964;24.128;2023-07-24T00:59:33;100520.59;;;14.76;100.00
7407;BME280;3745;56.964;24.128;2023-07-24T01:01:59;100538.31;;;14.89;100.00
7407;BME280;3745;56.964;24.128;2023-07-24T01:04:24;100551.09;;;14.85;100.00
7407;BME280;3745;56.964;24.128;2023-07-24T01:06:50;100414.22;;;13.94;100.00
7407;BME280;3745;56.964;24.128;2023-07-24T01:09:16;100549.50;;;14.72;100.00
7407;BME280;3745;56.964;24.128;2023-07-24T01:11:46;100482.75;;;14.26;100.00
7407;BME280;3745;56.964;24.128;2023-07-24T01:16:48;100510.75;;;14.33;100.00
7407;BME280;3745;56.964;24.128;2023-07-24T01:19:57;100547.94;;;14.52;100.00
7407;BME280;3745;56.964;24.128;2023-07-24T01:22:46;100490.41;;;14.24;100.00
7407;BME280;3745;56.964;24.128;2023-07-24T01:25:33;100532.72;;;14.43;100.00
7407;BME280;3745;56.964;24.128;2023-07-24T01:28:07;100453.19;;;14.05;100.00
7407;BME280;3745;56.964;24.128;2023-07-24T01:30:33;100388.16;;;13.65;100.00
7407;BME280;3745;56.964;24.128;2023-07-24T01:32:59;100527.53;;;14.55;100.00
7407;BME280;3745;56.964;24.128;2023-07-24T01:35:25;100520.75;;;14.54;100.00
7407;BME280;3745;56.964;24.128;2023-07-24T01:37:52;100531.78;;;14.58;100.00
7407;BME280;3745;56.964;24.128;2023-07-24T01:40:19;100453.16;;;14.08;100.00
7407;BME280;3745;56.964;24.128;2023-07-24T01:42:45;100411.78;;;13.83;100.00
7407;BME280;3745;56.964;24.128;2023-07-24T01:45:11;100497.13;;;14.31;100.00
7407;BME280;3745;56.964;24.128;2023-07-24T01:47:36;100524.09;;;14.62;100.00
7407;BME280;3745;56.964;24.128;2023-07-24T01:50:02;100507.19;;;14.52;100.00
7407;BME280;3745;56.964;24.128;2023-07-24T01:52:28;100525.78;;;14.63;100.00
7407;BME280;3745;56.964;24.128;2023-07-24T01:54:54;100527.56;;;14.52;100.00
7407;BME280;3745;56.964;24.128;2023-07-24T01:57:19;100498.81;;;14.32;100.00
7407;BME280;3745;56.964;24.128;2023-07-24T01:59:45;100454.88;;;14.06;100.00
7407;BME280;3745;56.964;24.128;2023-07-24T02:02:11;100520.84;;;14.44;100.00
7407;BME280;3745;56.964;24.128;2023-07-24T02:04:36;100480.25;;;14.21;100.00
7407;BME280;3745;56.964;24.128;2023-07-24T02:07:02;100507.31;;;14.34;100.00
7407;BME280;3745;56.964;24.128;2023-07-24T02:09:28;100497.16;;;14.25;100.00
7407;BME280;3745;56.964;24.128;2023-07-24T02:11:53;100495.50;;;14.21;100.00
7407;BME280;3745;56.964;24.128;2023-07-24T02:14:20;100431.25;;;13.89;100.00
7407;BME280;3745;56.964;24.128;2023-07-24T02:16:46;100492.09;;;14.22;100.00
7407;BME280;3745;56.964;24.128;2023-07-24T02:19:11;100525.06;;;14.43;100.00
7407;BME280;3745;56.964;24.128;2023-07-24T02:21:37;100506.44;;;14.37;100.00
7407;BME280;3745;56.964;24.128;2023-07-24T02:24:03;100481.94;;;14.19;100.00
7407;BME280;3745;56.964;24.128;2023-07-24T02:26:29;100529.28;;;14.50;100.00
7407;BME280;3745;56.964;24.128;2023-07-24T02:28:54;100434.53;;;14.00;100.00
7407;BME280;3745;56.964;24.128;2023-07-24T02:31:20;100410.91;;;13.86;100.00
7407;BME280;3745;56.964;24.128;2023-07-24T02:33:45;100522.44;;;14.55;100.00
7407;BME280;3745;56.964;24.128;2023-07-24T02:36:11;100491.97;;;14.43;100.00
7407;BME280;3745;56.964;24.128;2023-07-24T02:38:37;100436.13;;;14.19;100.00
7407;BME280;3745;56.964;24.128;2023-07-24T02:41:02;100456.41;;;14.34;100.00
7407;BME280;3745;56.964;24.128;2023-07-24T02:43:28;100495.28;;;14.57;100.00
7407;BME280;3745;56.964;24.128;2023-07-24T02:45:53;100517.19;;;14.74;100.00
7407;BME280;3745;56.964;24.128;2023-07-24T02:48:19;100492.69;;;14.59;100.00
7407;BME280;3745;56.964;24.128;2023-07-24T02:50:49;100485.97;;;14.55;100.00
7407;BME280;3745;56.964;24.128;2023-07-24T02:53:15;100495.25;;;14.60;100.00
7407;BME280;3745;56.964;24.128;2023-07-24T02:55:44;100522.22;;;14.83;100.00
7407;BME280;3745;56.964;24.128;2023-07-24T02:58:11;100466.41;;;14.55;100.00
7407;BME280;3745;56.964;24.128;2023-07-24T03:00:37;100516.22;;;14.90;100.00
7407;BME280;3745;56.964;24.128;2023-07-24T03:03:03;100520.50;;;14.88;100.00
7407;BME280;3745;56.964;24.128;2023-07-24T03:05:29;100473.03;;;14.75;100.00
7407;BME280;3745;56.964;24.128;2023-07-24T03:07:54;100521.06;;;15.17;100.00
7407;BME280;3745;56.964;24.128;2023-07-24T03:10:20;100465.28;;;14.87;100.00
7407;BME280;3745;56.964;24.128;2023-07-24T03:12:45;100472.91;;;14.90;100.00
7407;BME280;3745;56.964;24.128;2023-07-24T03:15:11;100478.03;;;14.87;100.00
7407;BME280;3745;56.964;24.128;2023-07-24T03:17:37;100472.75;;;15.05;100.00
7407;BME280;3745;56.964;24.128;2023-07-24T03:20:16;100403.53;;;14.63;100.00
7407;BME280;3745;56.964;24.128;2023-07-24T03:22:43;100516.59;;;15.37;100.00
7407;BME280;3745;56.964;24.128;2023-07-24T03:25:09;100492.75;;;15.41;100.00
7407;BME280;3745;56.964;24.128;2023-07-24T03:27:34;100435.22;;;15.19;100.00
7407;BME280;3745;56.964;24.128;2023-07-24T03:30:00;100487.56;;;15.53;100.00
7407;BME280;3745;56.964;24.128;2023-07-24T03:32:26;100506.03;;;15.70;100.00
7407;BME280;3745;56.964;24.128;2023-07-24T03:34:52;100485.78;;;15.58;100.00
7407;BME280;3745;56.964;24.128;2023-07-24T03:37:17;100517.75;;;15.87;100.00
7407;BME280;3745;56.964;24.128;2023-07-24T03:39:43;100492.41;;;15.75;100.00
7407;BME280;3745;56.964;24.128;2023-07-24T03:42:12;100512.69;;;15.84;100.00
7407;BME280;3745;56.964;24.128;2023-07-24T03:44:41;100507.66;;;15.78;100.00
7407;BME280;3745;56.964;24.128;2023-07-24T03:47:07;100509.34;;;15.79;100.00
7407;BME280;3745;56.964;24.128;2023-07-24T03:49:33;100468.16;;;15.36;100.00
7407;BME280;3745;56.964;24.128;2023-07-24T03:51:59;100468.03;;;15.48;100.00
7407;BME280;3745;56.964;24.128;2023-07-24T03:54:24;100470.59;;;15.49;100.00
7407;BME280;3745;56.964;24.128;2023-07-24T03:56:50;100502.75;;;15.62;100.00
7407;BME280;3745;56.964;24.128;2023-07-24T03:59:15;100466.50;;;15.33;100.00
7407;BME280;3745;56.964;24.128;2023-07-24T04:01:41;100466.59;;;15.26;100.00
7407;BME280;3745;56.964;24.128;2023-07-24T04:04:06;100469.97;;;15.26;100.00
7407;BME280;3745;56.964;24.128;2023-07-24T04:06:32;100321.44;;;14.39;100.00
7407;BME280;3745;56.964;24.128;2023-07-24T04:08:58;100483.53;;;15.30;100.00
7407;BME280;3745;56.964;24.128;2023-07-24T04:11:23;100369.44;;;14.75;100.00
7407;BME280;3745;56.964;24.128;2023-07-24T04:13:49;100478.94;;;15.60;100.00
7407;BME280;3745;56.964;24.128;2023-07-24T04:16:14;100489.66;;;15.88;100.00
7407;BME280;3745;56.964;24.128;2023-07-24T04:18:40;100508.03;;;16.14;100.00
7407;BME280;3745;56.964;24.128;2023-07-24T04:21:06;100508.00;;;16.16;100.00
7407;BME280;3745;56.964;24.128;2023-07-24T04:23:31;100452.22;;;15.89;100.00
7407;BME280;3745;56.964;24.128;2023-07-24T04:25:57;100415.84;;;15.75;100.00
7407;BME280;3745;56.964;24.128;2023-07-24T04:28:22;100498.63;;;16.18;100.00
7407;BME280;3745;56.964;24.128;2023-07-24T04:30:48;100464.59;;;16.16;100.00
7407;BME280;3745;56.964;24.128;2023-07-24T04:33:13;100462.13;;;16.10;100.00
7407;BME280;3745;56.964;24.128;2023-07-24T04:35:39;100463.22;;;15.91;100.00
7407;BME280;3745;56.964;24.128;2023-07-24T04:38:05;100498.63;;;16.18;100.00
7407;BME280;3745;56.964;24.128;2023-07-24T04:40:30;100476.63;;;16.08;100.00
7407;BME280;3745;56.964;24.128;2023-07-24T04:42:56;100490.16;;;16.13;100.00
7407;BME280;3745;56.964;24.128;2023-07-24T04:45:21;100510.53;;;16.16;100.00
7407;BME280;3745;56.964;24.128;2023-07-24T04:47:47;100456.38;;;15.96;100.00
7407;BME280;3745;56.964;24.128;2023-07-24T04:50:13;100392.22;;;15.60;100.00
7407;BME280;3745;56.964;24.128;2023-07-24T04:52:38;100493.19;;;16.39;100.00
7407;BME280;3745;56.964;24.128;2023-07-24T04:55:04;100371.00;;;15.58;100.00
7407;BME280;3745;56.964;24.128;2023-07-24T04:57:30;100491.69;;;16.26;100.00
7407;BME280;3745;56.964;24.128;2023-07-24T04:59:55;100482.22;;;16.31;100.00
7407;BME280;3745;56.964;24.128;2023-07-24T05:02:21;100471.00;;;16.41;100.00
7407;BME280;3745;56.964;24.128;2023-07-24T05:04:47;100479.34;;;16.52;100.00
7407;BME280;3745;56.964;24.128;2023-07-24T05:07:13;100452.94;;;16.55;100.00
7407;BME280;3745;56.964;24.128;2023-07-24T05:09:38;100483.13;;;16.82;100.00
7407;BME280;3745;56.964;24.128;2023-07-24T05:12:04;100413.91;;;16.44;100.00
7407;BME280;3745;56.964;24.128;2023-07-24T05:14:30;100460.53;;;16.59;100.00
7407;BME280;3745;56.964;24.128;2023-07-24T05:16:56;100446.78;;;16.66;100.00
7407;BME280;3745;56.964;24.128;2023-07-24T05:19:21;100375.16;;;16.20;100.00
7407;BME280;3745;56.964;24.128;2023-07-24T05:21:47;100457.59;;;16.80;100.00
7407;BME280;3745;56.964;24.128;2023-07-24T05:24:12;100456.91;;;16.72;100.00
7407;BME280;3745;56.964;24.128;2023-07-24T05:26:38;100451.84;;;16.69;100.00
7407;BME280;3745;56.964;24.128;2023-07-24T05:29:03;100434.13;;;16.59;100.00
7407;BME280;3745;56.964;24.128;2023-07-24T05:31:29;100433.91;;;16.71;100.00
7407;BME280;3745;56.964;24.128;2023-07-24T05:33:54;100431.41;;;16.69;100.00
7407;BME280;3745;56.964;24.128;2023-07-24T05:36:20;100406.00;;;16.60;100.00
7407;BME280;3745;56.964;24.128;2023-07-24T05:38:46;100446.00;;;17.07;100.00
7407;BME280;3745;56.964;24.128;2023-07-24T05:41:11;100439.13;;;17.11;100.00
7407;BME280;3745;56.964;24.128;2023-07-24T05:43:37;100419.88;;;16.95;100.00
7407;BME280;3745;56.964;24.128;2023-07-24T05:46:02;100350.16;;;16.38;100.00
7407;BME280;3745;56.964;24.128;2023-07-24T05:48:28;100444.66;;;16.90;100.00
7407;BME280;3745;56.964;24.128;2023-07-24T05:50:53;100456.78;;;16.78;100.00
7407;BME280;3745;56.964;24.128;2023-07-24T05:53:19;100431.59;;;16.57;100.00
7407;BME280;3745;56.964;24.128;2023-07-24T05:55:45;100459.47;;;16.71;100.00
7407;BME280;3745;56.964;24.128;2023-07-24T05:58:10;100271.38;;;15.67;100.00
7407;BME280;3745;56.964;24.128;2023-07-24T06:00:36;100401.06;;;16.48;100.00
7407;BME280;3745;56.964;24.128;2023-07-24T06:03:02;100423.09;;;16.55;100.00
7407;BME280;3745;56.964;24.128;2023-07-24T06:05:28;100424.69;;;16.62;100.00
7407;BME280;3745;56.964;24.128;2023-07-24T06:07:54;100264.69;;;15.60;100.00
7407;BME280;3745;56.964;24.128;2023-07-24T06:10:20;100458.63;;;16.70;100.00
7407;BME280;3745;56.964;24.128;2023-07-24T06:12:45;100468.53;;;16.89;100.00
7407;BME280;3745;56.964;24.128;2023-07-24T06:15:11;100378.31;;;16.36;100.00
7407;BME280;3745;56.964;24.128;2023-07-24T06:17:36;100432.94;;;16.76;100.00
7407;BME280;3745;56.964;24.128;2023-07-24T06:20:02;100456.63;;;16.88;100.00
7407;BME280;3745;56.964;24.128;2023-07-24T06:22:28;100394.09;;;16.59;100.00
7407;BME280;3745;56.964;24.128;2023-07-24T06:24:53;100458.28;;;16.92;100.00
7407;BME280;3745;56.964;24.128;2023-07-24T06:27:19;100456.63;;;16.88;100.00
7407;BME280;3745;56.964;24.128;2023-07-24T06:29:44;100449.81;;;16.87;100.00
7407;BME280;3745;56.964;24.128;2023-07-24T06:32:10;100450.03;;;16.74;100.00
7407;BME280;3745;56.964;24.128;2023-07-24T06:34:35;100448.03;;;16.92;100.00
7407;BME280;3745;56.964;24.128;2023-07-24T06:37:01;100430.31;;;16.81;100.00
7407;BME280;3745;56.964;24.128;2023-07-24T06:39:26;100413.97;;;16.90;100.00
7407;BME280;3745;56.964;24.128;2023-07-24T06:41:54;100449.88;;;16.84;100.00
7407;BME280;3745;56.964;24.128;2023-07-24T06:44:20;100457.84;;;16.67;100.00
7407;BME280;3745;56.964;24.128;2023-07-24T06:46:46;100452.75;;;16.67;100.00
7407;BME280;3745;56.964;24.128;2023-07-24T06:49:11;100429.97;;;16.50;100.00
7407;BME280;3745;56.964;24.128;2023-07-24T06:51:37;100360.81;;;16.12;100.00
7407;BME280;3745;56.964;24.128;2023-07-24T06:54:04;100393.41;;;16.48;100.00
7407;BME280;3745;56.964;24.128;2023-07-24T06:56:30;100454.69;;;16.99;100.00
7407;BME280;3745;56.964;24.128;2023-07-24T06:58:56;100424.31;;;16.85;100.00
7407;BME280;3745;56.964;24.128;2023-07-24T07:01:22;100426.00;;;16.85;100.00
7407;BME280;3745;56.964;24.128;2023-07-24T07:03:47;100423.41;;;16.86;100.00
7407;BME280;3745;56.964;24.128;2023-07-24T07:06:13;100336.38;;;16.46;100.00
7407;BME280;3745;56.964;24.128;2023-07-24T07:08:38;100450.75;;;17.27;100.00
7407;BME280;3745;56.964;24.128;2023-07-24T07:11:04;100351.50;;;16.58;100.00
7407;BME280;3745;56.964;24.128;2023-07-24T07:13:30;100425.44;;;17.15;100.00
7407;BME280;3745;56.964;24.128;2023-07-24T07:15:55;100428.16;;;17.06;100.00
7407;BME280;3745;56.964;24.128;2023-07-24T07:18:21;100331.16;;;16.52;100.00
7407;BME280;3745;56.964;24.128;2023-07-24T07:20:48;100448.19;;;17.28;100.00
7407;BME280;3745;56.964;24.128;2023-07-24T07:23:14;100414.56;;;17.45;100.00
7407;BME280;3745;56.964;24.128;2023-07-24T07:25:40;100397.34;;;17.53;100.00
7407;BME280;3745;56.964;24.128;2023-07-24T07:28:06;100422.38;;;17.80;100.00
7407;BME280;3745;56.964;24.128;2023-07-24T07:30:31;100396.78;;;17.80;100.00
7407;BME280;3745;56.964;24.128;2023-07-24T07:32:57;100410.22;;;17.88;100.00
7407;BME280;3745;56.964;24.128;2023-07-24T07:35:23;100344.09;;;17.70;100.00
7407;BME280;3745;56.964;24.128;2023-07-24T07:37:48;100381.63;;;18.08;100.00
7407;BME280;3745;56.964;24.128;2023-07-24T07:40:14;100375.03;;;18.32;100.00
7407;BME280;3745;56.964;24.128;2023-07-24T07:42:39;100355.16;;;18.41;100.00
7407;BME280;3745;56.964;24.128;2023-07-24T07:45:05;100342.00;;;18.55;100.00
7407;BME280;3745;56.964;24.128;2023-07-24T07:47:31;100401.28;;;18.75;100.00
7407;BME280;3745;56.964;24.128;2023-07-24T07:49:56;100399.34;;;18.83;100.00
7407;BME280;3745;56.964;24.128;2023-07-24T07:52:22;100376.66;;;19.01;100.00
7407;BME280;3745;56.964;24.128;2023-07-24T07:54:48;100398.31;;;19.20;100.00
7407;BME280;3745;56.964;24.128;2023-07-24T07:57:15;100175.44;;;17.92;100.00
7407;BME280;3745;56.964;24.128;2023-07-24T07:59:40;100393.00;;;19.26;100.00
7407;BME280;3745;56.964;24.128;2023-07-24T08:02:06;100379.94;;;19.06;100.00
7407;BME280;3745;56.964;24.128;2023-07-24T08:04:32;100389.47;;;19.30;100.00
7407;BME280;3745;56.964;24.128;2023-07-24T08:06:57;100394.28;;;19.42;100.00
7407;BME280;3745;56.964;24.128;2023-07-24T08:09:23;100344.19;;;19.00;100.00
7407;BME280;3745;56.964;24.128;2023-07-24T08:11:50;100370.00;;;19.23;100.00
7407;BME280;3745;56.964;24.128;2023-07-24T08:14:19;100398.66;;;19.08;100.00
7407;BME280;3745;56.964;24.128;2023-07-24T08:16:48;100336.84;;;18.87;100.00
7407;BME280;3745;56.964;24.128;2023-07-24T08:19:13;100344.19;;;19.00;100.00
7407;BME280;3745;56.964;24.128;2023-07-24T08:21:39;100371.91;;;19.47;100.00
7407;BME280;3745;56.964;24.128;2023-07-24T08:24:06;100377.88;;;19.75;100.00
7407;BME280;3745;56.964;24.128;2023-07-24T08:26:31;100357.69;;;19.63;100.00
7407;BME280;3745;56.964;24.128;2023-07-24T08:28:57;100379.38;;;19.82;100.00
7407;BME280;3745;56.964;24.128;2023-07-24T08:31:22;100388.59;;;19.60;100.00
7407;BME280;3745;56.964;24.128;2023-07-24T08:33:48;100286.34;;;18.89;100.00
7407;BME280;3745;56.964;24.128;2023-07-24T08:36:14;100309.25;;;19.25;100.00
7407;BME280;3745;56.964;24.128;2023-07-24T08:38:40;100388.88;;;19.51;100.00
7407;BME280;3745;56.964;24.128;2023-07-24T08:41:12;100375.53;;;19.40;100.00
7407;BME280;3745;56.964;24.128;2023-07-24T08:43:40;100381.72;;;19.62;100.00
7407;BME280;3745;56.964;24.128;2023-07-24T08:46:06;100331.53;;;19.23;100.00
7407;BME280;3745;56.964;24.128;2023-07-24T08:48:35;100386.84;;;19.62;100.00
7407;BME280;3745;56.964;24.128;2023-07-24T08:51:05;100317.28;;;19.42;100.00
7407;BME280;3745;56.964;24.128;2023-07-24T08:53:39;100284.84;;;19.41;100.00
7407;BME280;3745;56.964;24.128;2023-07-24T08:56:07;100373.63;;;20.00;100.00
7407;BME280;3745;56.964;24.128;2023-07-24T08:58:33;100366.25;;;20.18;100.00
7407;BME280;3745;56.964;24.128;2023-07-24T09:01:00;100325.09;;;19.93;100.00
7407;BME280;3745;56.964;24.128;2023-07-24T09:03:26;100370.09;;;20.05;100.00
7407;BME280;3745;56.964;24.128;2023-07-24T09:05:53;100342.09;;;19.69;100.00
7407;BME280;3745;56.964;24.128;2023-07-24T09:08:53;100351.78;;;19.32;100.00
7407;BME280;3745;56.964;24.128;2023-07-24T09:11:19;100385.72;;;19.43;100.00
7407;BME280;3745;56.964;24.128;2023-07-24T09:13:44;100226.88;;;18.46;100.00
7407;BME280;3745;56.964;24.128;2023-07-24T09:16:24;100384.44;;;19.27;100.00
7407;BME280;3745;56.964;24.128;2023-07-24T09:18:50;100362.31;;;18.93;100.00
7407;BME280;3745;56.964;24.128;2023-07-24T09:21:32;100321.31;;;18.61;100.00
7407;BME280;3745;56.964;24.128;2023-07-24T09:24:11;100357.44;;;18.84;100.00
7407;BME280;3745;56.964;24.128;2023-07-24T09:26:52;100372.91;;;18.81;100.00
7407;BME280;3745;56.964;24.128;2023-07-24T09:29:19;100238.66;;;17.90;100.00
7407;BME280;3745;56.964;24.128;2023-07-24T09:31:48;100392.56;;;18.82;100.00
7407;BME280;3745;56.964;24.128;2023-07-24T09:34:17;100259.53;;;18.09;100.00
7407;BME280;3745;56.964;24.128;2023-07-24T09:37:00;100153.25;;;17.60;100.00
7407;BME280;3745;56.964;24.128;2023-07-24T09:39:26;100257.88;;;18.37;100.00
7407;BME280;3745;56.964;24.128;2023-07-24T09:41:52;100365.56;;;19.00;100.00
7407;BME280;3745;56.964;24.128;2023-07-24T09:44:18;100387.88;;;19.26;100.00
7407;BME280;3745;56.964;24.128;2023-07-24T09:46:44;100370.56;;;19.34;100.00
7407;BME280;3745;56.964;24.128;2023-07-24T09:49:10;100345.25;;;19.22;100.00
7407;BME280;3745;56.964;24.128;2023-07-24T09:51:37;100307.44;;;18.99;100.00
7407;BME280;3745;56.964;24.128;2023-07-24T09:54:14;100318.19;;;19.12;100.00
7407;BME280;3745;56.964;24.128;2023-07-24T09:56:42;100363.56;;;19.39;100.00
7407;BME280;3745;56.964;24.128;2023-07-24T09:59:09;100362.47;;;19.47;100.00
7407;BME280;3745;56.964;24.128;2023-07-24T10:01:34;100304.75;;;19.04;100.00
7407;BME280;3745;56.964;24.128;2023-07-24T10:04:03;100368.19;;;19.26;100.00
7407;BME280;3745;56.964;24.128;2023-07-24T10:06:29;100364.34;;;19.12;100.00
7407;BME280;3745;56.964;24.128;2023-07-24T10:08:56;100360.91;;;19.13;100.00
7407;BME280;3745;56.964;24.128;2023-07-24T10:11:23;100336.53;;;18.98;100.00
7407;BME280;3745;56.964;24.128;2023-07-24T10:13:50;100211.06;;;18.32;100.00
7407;BME280;3745;56.964;24.128;2023-07-24T10:16:16;100322.78;;;19.01;100.00
7407;BME280;3745;56.964;24.128;2023-07-24T10:18:45;100331.69;;;19.17;100.00
7407;BME280;3745;56.964;24.128;2023-07-24T10:21:12;100358.59;;;19.33;100.00
7407;BME280;3745;56.964;24.128;2023-07-24T10:23:45;100362.88;;;19.32;100.00
7407;BME280;3745;56.964;24.128;2023-07-24T10:26:14;100374.00;;;19.33;100.00
7407;BME280;3745;56.964;24.128;2023-07-24T10:28:41;100378.56;;;18.92;100.00
7407;BME280;3745;56.964;24.128;2023-07-24T10:31:18;100382.69;;;18.67;100.00
7407;BME280;3745;56.964;24.128;2023-07-24T10:33:44;100381.97;;;18.62;100.00
7407;BME280;3745;56.964;24.128;2023-07-24T10:36:11;100347.72;;;18.31;100.00
7407;BME280;3745;56.964;24.128;2023-07-24T10:38:43;100369.91;;;18.32;100.00
7407;BME280;3745;56.964;24.128;2023-07-24T10:41:10;100403.78;;;18.43;100.00
7407;BME280;3745;56.964;24.128;2023-07-24T10:43:48;100397.00;;;18.42;100.00
7407;BME280;3745;56.964;24.128;2023-07-24T10:46:15;100407.25;;;18.42;100.00
7407;BME280;3745;56.964;24.128;2023-07-24T10:48:43;100336.69;;;17.94;100.00
7407;BME280;3745;56.964;24.128;2023-07-24T10:51:10;100386.22;;;18.29;100.00
7407;BME280;3745;56.964;24.128;2023-07-24T10:53:37;100405.63;;;18.38;100.00
7407;BME280;3745;56.964;24.128;2023-07-24T10:56:06;100383.06;;;18.18;100.00
7407;BME280;3745;56.964;24.128;2023-07-24T10:58:32;100410.13;;;18.30;100.00
7407;BME280;3745;56.964;24.128;2023-07-24T11:00:58;100384.66;;;18.22;100.00
7407;BME280;3745;56.964;24.128;2023-07-24T11:03:25;100409.81;;;18.42;100.00
7407;BME280;3745;56.964;24.128;2023-07-24T11:05:51;100394.22;;;18.16;100.00
7407;BME280;3745;56.964;24.128;2023-07-24T11:08:19;100375.72;;;18.05;100.00
7407;BME280;3745;56.964;24.128;2023-07-24T11:10:53;100386.72;;;18.08;100.00
7407;BME280;3745;56.964;24.128;2023-07-24T11:13:23;100362.75;;;17.75;100.00
7407;BME280;3745;56.964;24.128;2023-07-24T11:15:49;100393.94;;;17.93;100.00
7407;BME280;3745;56.964;24.128;2023-07-24T11:18:16;100402.88;;;18.12;100.00
7407;BME280;3745;56.964;24.128;2023-07-24T11:20:50;100416.41;;;18.17;100.00
7407;BME280;3745;56.964;24.128;2023-07-24T11:23:16;100409.66;;;18.13;100.00
7407;BME280;3745;56.964;24.128;2023-07-24T11:25:43;100421.53;;;18.17;100.00
7407;BME280;3745;56.964;24.128;2023-07-24T11:28:11;100426.94;;;18.05;100.00
7407;BME280;3745;56.964;24.128;2023-07-24T11:30:38;100425.38;;;17.99;100.00
7407;BME280;3745;56.964;24.128;2023-07-24T11:33:09;100424.47;;;18.00;100.00
7407;BME280;3745;56.964;24.128;2023-07-24T11:35:36;100397.06;;;17.67;100.00
7407;BME280;3745;56.964;24.128;2023-07-24T11:38:04;100403.84;;;17.69;100.00
7407;BME280;3745;56.964;24.128;2023-07-24T11:40:36;100431.66;;;17.84;100.00
7407;BME280;3745;56.964;24.128;2023-07-24T11:43:03;100330.66;;;17.22;100.00
7407;BME280;3745;56.964;24.128;2023-07-24T11:45:30;100419.63;;;17.88;100.00
7407;BME280;3745;56.964;24.128;2023-07-24T11:47:56;100424.81;;;17.86;100.00
7407;BME280;3745;56.964;24.128;2023-07-24T11:50:23;100422.50;;;17.74;100.00
7407;BME280;3745;56.964;24.128;2023-07-24T11:52:52;100374.53;;;17.44;100.00
7407;BME280;3745;56.964;24.128;2023-07-24T11:55:29;100362.75;;;17.35;100.00
7407;BME280;3745;56.964;24.128;2023-07-24T11:58:00;100345.09;;;17.25;100.00
7407;BME280;3745;56.964;24.128;2023-07-24T12:00:26;100389.75;;;17.49;100.00
7407;BME280;3745;56.964;24.128;2023-07-24T12:02:55;100421.66;;;17.74;100.00
7407;BME280;3745;56.964;24.128;2023-07-24T12:05:24;100316.38;;;17.11;100.00
7407;BME280;3745;56.964;24.128;2023-07-24T12:07:49;100279.66;;;16.73;100.00
7407;BME280;3745;56.964;24.128;2023-07-24T12:10:25;100390.03;;;17.35;100.00
7407;BME280;3745;56.964;24.128;2023-07-24T12:12:53;100309.59;;;16.70;100.00
7407;BME280;3745;56.964;24.128;2023-07-24T12:15:18;100399.53;;;17.30;100.00
7407;BME280;3745;56.964;24.128;2023-07-24T12:17:44;100423.16;;;17.41;100.00
7407;BME280;3745;56.964;24.128;2023-07-24T12:20:10;100361.88;;;16.95;100.00
7407;BME280;3745;56.964;24.128;2023-07-24T12:22:37;100382.81;;;17.14;100.00
7407;BME280;3745;56.964;24.128;2023-07-24T12:25:04;100426.63;;;17.40;100.00
7407;BME280;3745;56.964;24.128;2023-07-24T12:27:30;100419.72;;;17.44;100.00
7407;BME280;3745;56.964;24.128;2023-07-24T12:30:03;100381.56;;;17.33;100.00
7407;BME280;3745;56.964;24.128;2023-07-24T12:32:29;100389.19;;;17.36;100.00
7407;BME280;3745;56.964;24.128;2023-07-24T12:34:54;100416.19;;;17.49;100.00
7407;BME280;3745;56.964;24.128;2023-07-24T12:37:20;100341.28;;;17.03;100.00
7407;BME280;3745;56.964;24.128;2023-07-24T12:39:51;100401.09;;;17.37;100.00
7407;BME280;3745;56.964;24.128;2023-07-24T12:42:17;100363.25;;;17.13;100.00
7407;BME280;3745;56.964;24.128;2023-07-24T12:44:43;100395.16;;;17.35;100.00
7407;BME280;3745;56.964;24.128;2023-07-24T12:47:10;100403.63;;;17.39;100.00
7407;BME280;3745;56.964;24.128;2023-07-24T12:49:39;100390.47;;;17.14;100.00
7407;BME280;3745;56.964;24.128;2023-07-24T12:52:05;100399.41;;;17.36;100.00